RYR6315 LFML-EBCI
Flight info
| Callsign | RYR6315 |
|---|---|
| Flight time | 1h 23m |
| Altitude | 34000 |
| Route | ETREK DCT MADOT DCT MOPEM DCT CACHI DCT AVLON DCT OKRIX DCT BRY DCT CLM DCT KOPOR DCT SOMIL DCT BELDI DCT VEKIN Z173 ARVOL |
| Aircraft | B738/M-SDFGIJ1LRWY/SB1 |
Departure
| Time | 2026-04-28 14:06 |
|---|---|
| Airport | Marseille Provence Airport (LFML) |
Arrival
| Time | 2026-04-28 15:30 |
|---|---|
| Airport | Brussels South Charleroi Airport (EBCI) |
| Time | Latitude | Longitude | Altitude | Speed | Heading |
|---|---|---|---|---|---|
| 2026-04-28 13:40 | 43.44211 | 5.21805 | 26 ft | 0 kts | 85° |
| 2026-04-28 13:55 | 43.44210 | 5.21824 | 26 ft | 5 kts | 109° |
| 2026-04-28 13:56 | 43.44199 | 5.21836 | 26 ft | 0 kts | 169° |
| 2026-04-28 13:57 | 43.44197 | 5.21836 | 26 ft | 0 kts | 180° |
| 2026-04-28 13:57 | 43.44188 | 5.21835 | 26 ft | 6 kts | 188° |
| 2026-04-28 13:57 | 43.44120 | 5.21809 | 26 ft | 10 kts | 206° |
| 2026-04-28 13:57 | 43.44072 | 5.21757 | 24 ft | 0 kts | 222° |
| 2026-04-28 13:58 | 43.44065 | 5.21749 | 24 ft | 3 kts | 223° |
| 2026-04-28 13:58 | 43.44049 | 5.21728 | 24 ft | 2 kts | 223° |
| 2026-04-28 13:59 | 43.44040 | 5.21715 | 24 ft | 2 kts | 223° |
| 2026-04-28 13:59 | 43.44025 | 5.21695 | 24 ft | 3 kts | 223° |
| 2026-04-28 13:59 | 43.44000 | 5.21664 | 23 ft | 5 kts | 222° |
| 2026-04-28 13:59 | 43.43968 | 5.21624 | 24 ft | 6 kts | 222° |
| 2026-04-28 14:00 | 43.43931 | 5.21578 | 25 ft | 7 kts | 227° |
| 2026-04-28 14:00 | 43.43915 | 5.21511 | 25 ft | 7 kts | 280° |
| 2026-04-28 14:00 | 43.43942 | 5.21481 | 24 ft | 5 kts | 321° |
| 2026-04-28 14:00 | 43.43971 | 5.21429 | 24 ft | 8 kts | 305° |
| 2026-04-28 14:01 | 43.44009 | 5.21354 | 23 ft | 10 kts | 305° |
| 2026-04-28 14:01 | 43.44063 | 5.21266 | 22 ft | 13 kts | 312° |
| 2026-04-28 14:01 | 43.44139 | 5.21169 | 21 ft | 16 kts | 319° |
| 2026-04-28 14:01 | 43.44230 | 5.21046 | 18 ft | 19 kts | 311° |
| 2026-04-28 14:02 | 43.44312 | 5.20883 | 17 ft | 20 kts | 299° |
| 2026-04-28 14:02 | 43.44398 | 5.20729 | 16 ft | 20 kts | 314° |
| 2026-04-28 14:02 | 43.44500 | 5.20590 | 14 ft | 20 kts | 314° |
| 2026-04-28 14:02 | 43.44597 | 5.20453 | 14 ft | 19 kts | 313° |
| 2026-04-28 14:03 | 43.44690 | 5.20319 | 14 ft | 18 kts | 314° |
| 2026-04-28 14:03 | 43.44787 | 5.20181 | 14 ft | 18 kts | 314° |
| 2026-04-28 14:03 | 43.44873 | 5.20058 | 14 ft | 15 kts | 314° |
| 2026-04-28 14:03 | 43.44945 | 5.19956 | 14 ft | 14 kts | 313° |
| 2026-04-28 14:04 | 43.44980 | 5.19849 | 13 ft | 11 kts | 254° |
| 2026-04-28 14:04 | 43.44920 | 5.19782 | 14 ft | 10 kts | 193° |
| 2026-04-28 14:04 | 43.44872 | 5.19794 | 13 ft | 3 kts | 137° |
| 2026-04-28 14:04 | 43.44869 | 5.19799 | 13 ft | 0 kts | 136° |
| 2026-04-28 14:05 | 43.44864 | 5.19806 | 13 ft | 7 kts | 136° |
| 2026-04-28 14:05 | 43.44736 | 5.19984 | 13 ft | 47 kts | 134° |
| 2026-04-28 14:05 | 43.44406 | 5.20456 | 14 ft | 87 kts | 134° |
| 2026-04-28 14:05 | 43.43901 | 5.21177 | 25 ft | 119 kts | 135° |
| 2026-04-28 14:06 | 43.43257 | 5.22099 | 54 ft | 143 kts | 136° |
| 2026-04-28 14:06 | 43.42547 | 5.23129 | 155 ft | 148 kts | 137° |
| 2026-04-28 14:06 | 43.41812 | 5.24167 | 514 ft | 163 kts | 138° |
| 2026-04-28 14:06 | 43.41124 | 5.25436 | 1335 ft | 173 kts | 110° |
| 2026-04-28 14:07 | 43.41214 | 5.27079 | 1966 ft | 182 kts | 65° |
| 2026-04-28 14:07 | 43.41995 | 5.28537 | 2253 ft | 196 kts | 52° |
| 2026-04-28 14:07 | 43.43014 | 5.29855 | 2592 ft | 209 kts | 36° |
| 2026-04-28 14:07 | 43.44444 | 5.30613 | 2819 ft | 231 kts | 6° |
| 2026-04-28 14:08 | 43.46088 | 5.30338 | 3093 ft | 249 kts | 338° |
| 2026-04-28 14:08 | 43.47592 | 5.29045 | 3487 ft | 260 kts | 317° |
| 2026-04-28 14:08 | 43.49018 | 5.27445 | 3827 ft | 274 kts | 329° |
| 2026-04-28 14:08 | 43.50811 | 5.26415 | 4422 ft | 277 kts | 343° |
| 2026-04-28 14:09 | 43.52670 | 5.25726 | 5030 ft | 279 kts | 345° |
| 2026-04-28 14:09 | 43.54559 | 5.25021 | 5629 ft | 282 kts | 344° |
| 2026-04-28 14:09 | 43.56445 | 5.24256 | 6281 ft | 283 kts | 343° |
| 2026-04-28 14:09 | 43.58345 | 5.23438 | 6903 ft | 286 kts | 342° |
| 2026-04-28 14:10 | 43.60239 | 5.22595 | 7523 ft | 289 kts | 342° |
| 2026-04-28 14:10 | 43.62142 | 5.21738 | 8195 ft | 290 kts | 341° |
| 2026-04-28 14:10 | 43.64091 | 5.20858 | 8828 ft | 293 kts | 341° |
| 2026-04-28 14:10 | 43.66013 | 5.19991 | 9520 ft | 294 kts | 341° |
| 2026-04-28 14:11 | 43.67981 | 5.19104 | 10153 ft | 298 kts | 341° |
| 2026-04-28 14:11 | 43.69999 | 5.18194 | 10547 ft | 311 kts | 341° |
| 2026-04-28 14:11 | 43.72105 | 5.17236 | 10901 ft | 325 kts | 340° |
| 2026-04-28 14:11 | 43.74292 | 5.16213 | 11227 ft | 340 kts | 340° |
| 2026-04-28 14:12 | 43.76574 | 5.15128 | 11634 ft | 352 kts | 340° |
| 2026-04-28 14:12 | 43.78925 | 5.14008 | 12268 ft | 356 kts | 339° |
| 2026-04-28 14:12 | 43.81267 | 5.12894 | 12920 ft | 359 kts | 339° |
| 2026-04-28 14:12 | 43.83637 | 5.11767 | 13625 ft | 362 kts | 339° |
| 2026-04-28 14:13 | 43.86025 | 5.10636 | 14313 ft | 365 kts | 339° |
| 2026-04-28 14:13 | 43.88485 | 5.09598 | 14985 ft | 370 kts | 343° |
| 2026-04-28 14:13 | 43.91008 | 5.08802 | 15619 ft | 375 kts | 346° |
| 2026-04-28 14:13 | 43.93597 | 5.08159 | 16250 ft | 380 kts | 348° |
| 2026-04-28 14:14 | 43.96243 | 5.07580 | 16891 ft | 384 kts | 348° |
| 2026-04-28 14:14 | 43.98901 | 5.07017 | 17508 ft | 388 kts | 348° |
| 2026-04-28 14:14 | 44.01593 | 5.06441 | 18134 ft | 391 kts | 348° |
| 2026-04-28 14:14 | 44.04293 | 5.05851 | 18761 ft | 394 kts | 348° |
| 2026-04-28 14:15 | 44.06998 | 5.05247 | 19371 ft | 397 kts | 348° |
| 2026-04-28 14:15 | 44.09740 | 5.04625 | 19975 ft | 400 kts | 348° |
| 2026-04-28 14:15 | 44.12477 | 5.03999 | 20546 ft | 403 kts | 348° |
| 2026-04-28 14:15 | 44.15289 | 5.03352 | 21140 ft | 405 kts | 348° |
| 2026-04-28 14:16 | 44.18065 | 5.02712 | 21663 ft | 409 kts | 348° |
| 2026-04-28 14:16 | 44.20863 | 5.02066 | 22229 ft | 411 kts | 348° |
| 2026-04-28 14:16 | 44.23739 | 5.01401 | 22737 ft | 414 kts | 348° |
| 2026-04-28 14:16 | 44.26555 | 5.00751 | 23266 ft | 417 kts | 348° |
| 2026-04-28 14:17 | 44.29465 | 5.00078 | 23792 ft | 419 kts | 348° |
| 2026-04-28 14:17 | 44.32347 | 4.99411 | 24313 ft | 421 kts | 348° |
| 2026-04-28 14:17 | 44.35233 | 4.98742 | 24766 ft | 425 kts | 348° |
| 2026-04-28 14:17 | 44.38161 | 4.98063 | 25236 ft | 427 kts | 347° |
| 2026-04-28 14:18 | 44.41128 | 4.97374 | 25668 ft | 430 kts | 347° |
| 2026-04-28 14:18 | 44.44078 | 4.96688 | 26140 ft | 432 kts | 347° |
| 2026-04-28 14:18 | 44.47044 | 4.95998 | 26599 ft | 434 kts | 347° |
| 2026-04-28 14:18 | 44.50029 | 4.95304 | 27042 ft | 435 kts | 347° |
| 2026-04-28 14:19 | 44.53048 | 4.94599 | 27446 ft | 438 kts | 347° |
| 2026-04-28 14:19 | 44.56057 | 4.93895 | 27846 ft | 441 kts | 347° |
| 2026-04-28 14:19 | 44.59144 | 4.93172 | 28229 ft | 444 kts | 347° |
| 2026-04-28 14:19 | 44.62168 | 4.92466 | 28617 ft | 446 kts | 347° |
| 2026-04-28 14:20 | 44.65284 | 4.91737 | 29007 ft | 448 kts | 347° |
| 2026-04-28 14:20 | 44.68377 | 4.90994 | 29233 ft | 454 kts | 346° |
| 2026-04-28 14:20 | 44.71484 | 4.90086 | 29586 ft | 455 kts | 342° |
| 2026-04-28 14:20 | 44.74542 | 4.88855 | 30161 ft | 449 kts | 338° |
| 2026-04-28 14:21 | 44.77425 | 4.87437 | 31130 ft | 435 kts | 335° |
| 2026-04-28 14:21 | 44.80264 | 4.85907 | 31788 ft | 429 kts | 334° |
| 2026-04-28 14:21 | 44.83013 | 4.84357 | 32200 ft | 428 kts | 333° |
| 2026-04-28 14:21 | 44.85777 | 4.82765 | 32595 ft | 428 kts | 333° |
| 2026-04-28 14:22 | 44.88546 | 4.81162 | 32981 ft | 428 kts | 333° |
| 2026-04-28 14:22 | 44.91295 | 4.79576 | 33371 ft | 427 kts | 333° |
| 2026-04-28 14:22 | 44.94029 | 4.78005 | 33698 ft | 427 kts | 332° |
| 2026-04-28 14:22 | 44.96805 | 4.76415 | 33971 ft | 428 kts | 332° |
| 2026-04-28 14:23 | 45.02380 | 4.73224 | 33980 ft | 438 kts | 333° |
| 2026-04-28 14:23 | 45.08075 | 4.69980 | 33982 ft | 437 kts | 333° |
| 2026-04-28 14:24 | 45.13693 | 4.66785 | 33975 ft | 435 kts | 333° |
| 2026-04-28 14:24 | 45.19426 | 4.63903 | 33975 ft | 440 kts | 339° |
| 2026-04-28 14:25 | 45.25456 | 4.62099 | 33980 ft | 443 kts | 345° |
| 2026-04-28 14:25 | 45.31605 | 4.60739 | 33980 ft | 444 kts | 346° |
| 2026-04-28 14:26 | 45.37734 | 4.59432 | 33980 ft | 447 kts | 346° |
| 2026-04-28 14:26 | 45.43877 | 4.58086 | 33980 ft | 447 kts | 346° |
| 2026-04-28 14:27 | 45.50047 | 4.56699 | 33984 ft | 445 kts | 345° |
| 2026-04-28 14:27 | 45.56177 | 4.55298 | 33984 ft | 446 kts | 345° |
| 2026-04-28 14:28 | 45.62289 | 4.53888 | 33988 ft | 445 kts | 345° |
| 2026-04-28 14:28 | 45.68433 | 4.52464 | 33987 ft | 445 kts | 345° |
| 2026-04-28 14:29 | 45.74537 | 4.51046 | 33982 ft | 446 kts | 345° |
| 2026-04-28 14:29 | 45.80677 | 4.49618 | 33987 ft | 446 kts | 345° |
| 2026-04-28 14:30 | 45.86831 | 4.48182 | 33985 ft | 447 kts | 345° |
| 2026-04-28 14:30 | 45.92999 | 4.46738 | 33985 ft | 448 kts | 345° |
| 2026-04-28 14:31 | 45.99144 | 4.45302 | 33982 ft | 448 kts | 345° |
| 2026-04-28 14:31 | 46.05299 | 4.43863 | 33982 ft | 448 kts | 345° |
| 2026-04-28 14:32 | 46.11467 | 4.42415 | 33983 ft | 447 kts | 345° |
| 2026-04-28 14:32 | 46.17577 | 4.40977 | 33983 ft | 446 kts | 345° |
| 2026-04-28 14:33 | 46.23728 | 4.39523 | 33986 ft | 449 kts | 345° |
| 2026-04-28 14:33 | 46.29732 | 4.38072 | 33983 ft | 448 kts | 343° |
| 2026-04-28 14:34 | 46.38783 | 4.35025 | 33986 ft | 444 kts | 339° |
| 2026-04-28 14:35 | 46.44834 | 4.32782 | 33985 ft | 445 kts | 339° |
| 2026-04-28 14:35 | 46.50845 | 4.30592 | 33986 ft | 444 kts | 339° |
| 2026-04-28 14:36 | 46.56862 | 4.28437 | 33985 ft | 445 kts | 339° |
| 2026-04-28 14:36 | 46.62894 | 4.26297 | 33986 ft | 445 kts | 339° |
| 2026-04-28 14:37 | 46.68914 | 4.24161 | 33985 ft | 445 kts | 339° |
| 2026-04-28 14:37 | 46.74915 | 4.22032 | 33986 ft | 445 kts | 339° |
| 2026-04-28 14:38 | 46.80987 | 4.19870 | 33986 ft | 447 kts | 339° |
| 2026-04-28 14:38 | 46.87046 | 4.17703 | 33983 ft | 445 kts | 339° |
| 2026-04-28 14:39 | 46.93073 | 4.15551 | 33984 ft | 447 kts | 339° |
| 2026-04-28 14:39 | 46.99137 | 4.13379 | 33984 ft | 448 kts | 339° |
| 2026-04-28 14:40 | 47.05206 | 4.11191 | 33984 ft | 445 kts | 338° |
| 2026-04-28 14:40 | 47.11075 | 4.08354 | 33984 ft | 441 kts | 331° |
| 2026-04-28 14:41 | 47.16708 | 4.05008 | 33987 ft | 439 kts | 329° |
| 2026-04-28 14:41 | 47.22377 | 4.01534 | 33984 ft | 439 kts | 330° |
| 2026-04-28 14:42 | 47.28033 | 3.98104 | 33982 ft | 440 kts | 330° |
| 2026-04-28 14:42 | 47.33693 | 3.94706 | 33982 ft | 439 kts | 330° |
| 2026-04-28 14:43 | 47.39387 | 3.91299 | 33977 ft | 439 kts | 330° |
| 2026-04-28 14:43 | 47.45048 | 3.87916 | 33976 ft | 439 kts | 330° |
| 2026-04-28 14:44 | 47.50740 | 3.84505 | 33974 ft | 442 kts | 330° |
| 2026-04-28 14:44 | 47.56455 | 3.81077 | 33974 ft | 441 kts | 330° |
| 2026-04-28 14:45 | 47.62149 | 3.77655 | 33976 ft | 440 kts | 330° |
| 2026-04-28 14:45 | 47.67824 | 3.74237 | 33975 ft | 440 kts | 330° |
| 2026-04-28 14:46 | 47.73497 | 3.70809 | 33983 ft | 442 kts | 330° |
| 2026-04-28 14:46 | 47.79181 | 3.67372 | 33983 ft | 439 kts | 330° |
| 2026-04-28 14:47 | 47.84879 | 3.63917 | 33978 ft | 440 kts | 330° |
| 2026-04-28 14:47 | 47.90545 | 3.60470 | 33976 ft | 440 kts | 330° |
| 2026-04-28 14:48 | 47.96238 | 3.56998 | 33975 ft | 441 kts | 330° |
| 2026-04-28 14:48 | 48.01904 | 3.53529 | 33971 ft | 440 kts | 330° |
| 2026-04-28 14:49 | 48.07624 | 3.50011 | 33980 ft | 440 kts | 330° |
| 2026-04-28 14:49 | 48.13305 | 3.46504 | 33984 ft | 443 kts | 330° |
| 2026-04-28 14:50 | 48.18998 | 3.42981 | 33988 ft | 443 kts | 330° |
| 2026-04-28 14:50 | 48.24757 | 3.39414 | 33993 ft | 444 kts | 330° |
| 2026-04-28 14:51 | 48.30447 | 3.35880 | 33990 ft | 444 kts | 331° |
| 2026-04-28 14:51 | 48.36195 | 3.32303 | 33999 ft | 444 kts | 330° |
| 2026-04-28 14:52 | 48.41904 | 3.28740 | 33999 ft | 446 kts | 330° |
| 2026-04-28 14:52 | 48.47639 | 3.25102 | 34004 ft | 447 kts | 330° |
| 2026-04-28 14:53 | 48.53384 | 3.21425 | 34002 ft | 448 kts | 330° |
| 2026-04-28 14:53 | 48.59134 | 3.17735 | 34005 ft | 448 kts | 330° |
| 2026-04-28 14:54 | 48.64869 | 3.14051 | 33997 ft | 449 kts | 331° |
| 2026-04-28 14:54 | 48.70626 | 3.10346 | 34006 ft | 449 kts | 331° |
| 2026-04-28 14:55 | 48.76408 | 3.06617 | 34008 ft | 451 kts | 331° |
| 2026-04-28 14:55 | 48.82178 | 3.02885 | 34013 ft | 450 kts | 331° |
| 2026-04-28 14:56 | 48.87805 | 2.98789 | 34016 ft | 448 kts | 326° |
| 2026-04-28 14:56 | 48.93227 | 2.94068 | 34017 ft | 448 kts | 324° |
| 2026-04-28 14:57 | 48.98611 | 2.89214 | 34007 ft | 448 kts | 324° |
| 2026-04-28 14:57 | 49.04003 | 2.84382 | 34010 ft | 450 kts | 325° |
| 2026-04-28 14:58 | 49.09407 | 2.79579 | 34024 ft | 450 kts | 325° |
| 2026-04-28 14:58 | 49.14862 | 2.74749 | 34029 ft | 452 kts | 326° |
| 2026-04-28 14:59 | 49.20303 | 2.69931 | 34036 ft | 452 kts | 326° |
| 2026-04-28 14:59 | 49.25628 | 2.65204 | 34035 ft | 453 kts | 326° |
| 2026-04-28 15:00 | 49.31098 | 2.60340 | 34038 ft | 454 kts | 326° |
| 2026-04-28 15:00 | 49.36540 | 2.55490 | 34034 ft | 455 kts | 326° |
| 2026-04-28 15:01 | 49.42035 | 2.50580 | 34034 ft | 455 kts | 327° |
| 2026-04-28 15:01 | 49.47527 | 2.45674 | 34045 ft | 457 kts | 328° |
| 2026-04-28 15:02 | 49.53235 | 2.41326 | 34060 ft | 461 kts | 336° |
| 2026-04-28 15:02 | 49.59336 | 2.38180 | 34054 ft | 461 kts | 342° |
| 2026-04-28 15:03 | 49.65522 | 2.35474 | 34068 ft | 462 kts | 343° |
| 2026-04-28 15:03 | 49.71859 | 2.33765 | 34065 ft | 463 kts | 359° |
| 2026-04-28 15:04 | 49.78148 | 2.35205 | 33681 ft | 453 kts | 20° |
| 2026-04-28 15:04 | 49.80971 | 2.37294 | 33279 ft | 449 kts | 33° |
| 2026-04-28 15:04 | 49.83454 | 2.40163 | 32825 ft | 446 kts | 41° |
| 2026-04-28 15:04 | 49.85762 | 2.43363 | 32344 ft | 444 kts | 44° |
| 2026-04-28 15:05 | 49.87987 | 2.46653 | 31877 ft | 442 kts | 45° |
| 2026-04-28 15:05 | 49.90180 | 2.49989 | 31393 ft | 441 kts | 45° |
| 2026-04-28 15:05 | 49.92337 | 2.53307 | 30919 ft | 439 kts | 45° |
| 2026-04-28 15:05 | 49.94530 | 2.56687 | 30423 ft | 438 kts | 45° |
| 2026-04-28 15:06 | 49.96674 | 2.59987 | 29907 ft | 436 kts | 45° |
| 2026-04-28 15:06 | 49.98846 | 2.63327 | 29410 ft | 434 kts | 45° |
| 2026-04-28 15:06 | 50.00961 | 2.66575 | 28933 ft | 430 kts | 46° |
| 2026-04-28 15:06 | 50.03086 | 2.69833 | 28461 ft | 427 kts | 46° |
| 2026-04-28 15:07 | 50.05213 | 2.73091 | 27973 ft | 424 kts | 46° |
| 2026-04-28 15:07 | 50.07291 | 2.76275 | 27493 ft | 421 kts | 46° |
| 2026-04-28 15:07 | 50.09386 | 2.79487 | 27017 ft | 417 kts | 46° |
| 2026-04-28 15:07 | 50.11443 | 2.82640 | 26534 ft | 414 kts | 46° |
| 2026-04-28 15:08 | 50.13499 | 2.85793 | 26053 ft | 411 kts | 46° |
| 2026-04-28 15:08 | 50.15506 | 2.88875 | 25580 ft | 407 kts | 46° |
| 2026-04-28 15:08 | 50.17514 | 2.91962 | 25103 ft | 403 kts | 46° |
| 2026-04-28 15:08 | 50.19510 | 2.95035 | 24628 ft | 399 kts | 46° |
| 2026-04-28 15:09 | 50.21462 | 2.98046 | 24157 ft | 395 kts | 46° |
| 2026-04-28 15:09 | 50.23425 | 3.01075 | 23698 ft | 391 kts | 47° |
| 2026-04-28 15:09 | 50.25332 | 3.04024 | 23244 ft | 387 kts | 47° |
| 2026-04-28 15:09 | 50.26601 | 3.05986 | 22939 ft | 384 kts | 47° |
| 2026-04-28 15:10 | 50.29114 | 3.09881 | 22336 ft | 379 kts | 47° |
| 2026-04-28 15:10 | 50.30977 | 3.12772 | 21890 ft | 375 kts | 47° |
| 2026-04-28 15:10 | 50.32811 | 3.15621 | 21447 ft | 371 kts | 47° |
| 2026-04-28 15:10 | 50.34634 | 3.18456 | 21007 ft | 367 kts | 47° |
| 2026-04-28 15:11 | 50.36431 | 3.21252 | 20580 ft | 363 kts | 47° |
| 2026-04-28 15:11 | 50.38226 | 3.24047 | 20139 ft | 359 kts | 47° |
| 2026-04-28 15:11 | 50.39985 | 3.26791 | 19703 ft | 355 kts | 47° |
| 2026-04-28 15:11 | 50.41656 | 3.29398 | 19298 ft | 351 kts | 47° |
| 2026-04-28 15:12 | 50.43379 | 3.32090 | 18875 ft | 347 kts | 47° |
| 2026-04-28 15:12 | 50.45073 | 3.34741 | 18440 ft | 344 kts | 47° |
| 2026-04-28 15:12 | 50.46746 | 3.37362 | 18027 ft | 340 kts | 47° |
| 2026-04-28 15:12 | 50.48425 | 3.39994 | 17614 ft | 337 kts | 47° |
| 2026-04-28 15:13 | 50.50072 | 3.42580 | 17196 ft | 333 kts | 47° |
| 2026-04-28 15:13 | 50.51704 | 3.45144 | 16789 ft | 330 kts | 47° |
| 2026-04-28 15:13 | 50.53281 | 3.47725 | 16368 ft | 326 kts | 51° |
| 2026-04-28 15:13 | 50.54578 | 3.50590 | 16099 ft | 315 kts | 64° |
| 2026-04-28 15:14 | 50.55410 | 3.53718 | 16109 ft | 301 kts | 73° |
| 2026-04-28 15:14 | 50.56025 | 3.56842 | 16110 ft | 303 kts | 76° |
| 2026-04-28 15:14 | 50.56607 | 3.60060 | 16096 ft | 304 kts | 76° |
| 2026-04-28 15:14 | 50.57186 | 3.63267 | 16094 ft | 305 kts | 76° |
| 2026-04-28 15:15 | 50.57772 | 3.66461 | 16091 ft | 305 kts | 76° |
| 2026-04-28 15:15 | 50.58171 | 3.68601 | 16094 ft | 304 kts | 76° |
| 2026-04-28 15:15 | 50.58949 | 3.72746 | 16110 ft | 304 kts | 76° |
| 2026-04-28 15:15 | 50.59551 | 3.75945 | 16082 ft | 303 kts | 76° |
| 2026-04-28 15:16 | 50.60143 | 3.79099 | 15806 ft | 298 kts | 76° |
| 2026-04-28 15:16 | 50.60726 | 3.82205 | 15460 ft | 296 kts | 76° |
| 2026-04-28 15:16 | 50.61312 | 3.85334 | 15089 ft | 294 kts | 75° |
| 2026-04-28 15:16 | 50.61886 | 3.88409 | 14723 ft | 291 kts | 75° |
| 2026-04-28 15:17 | 50.62448 | 3.91427 | 14360 ft | 289 kts | 76° |
| 2026-04-28 15:17 | 50.63014 | 3.94472 | 13991 ft | 287 kts | 75° |
| 2026-04-28 15:17 | 50.63578 | 3.97504 | 13627 ft | 285 kts | 75° |
| 2026-04-28 15:17 | 50.64129 | 4.00477 | 13274 ft | 283 kts | 75° |
| 2026-04-28 15:18 | 50.64679 | 4.03445 | 12925 ft | 280 kts | 76° |
| 2026-04-28 15:18 | 50.65219 | 4.06367 | 12566 ft | 279 kts | 76° |
| 2026-04-28 15:18 | 50.65751 | 4.09244 | 12217 ft | 277 kts | 76° |
| 2026-04-28 15:18 | 50.66277 | 4.12097 | 11872 ft | 274 kts | 76° |
| 2026-04-28 15:19 | 50.66804 | 4.14966 | 11530 ft | 273 kts | 76° |
| 2026-04-28 15:19 | 50.67328 | 4.17814 | 11180 ft | 270 kts | 76° |
| 2026-04-28 15:19 | 50.67851 | 4.20666 | 10840 ft | 268 kts | 76° |
| 2026-04-28 15:19 | 50.68339 | 4.23474 | 10477 ft | 267 kts | 79° |
| 2026-04-28 15:20 | 50.68460 | 4.26386 | 10061 ft | 264 kts | 101° |
| 2026-04-28 15:20 | 50.67824 | 4.29043 | 9812 ft | 257 kts | 122° |
| 2026-04-28 15:20 | 50.66655 | 4.31180 | 9490 ft | 255 kts | 137° |
| 2026-04-28 15:20 | 50.65212 | 4.32785 | 9162 ft | 255 kts | 148° |
| 2026-04-28 15:21 | 50.63655 | 4.34075 | 8847 ft | 253 kts | 150° |
| 2026-04-28 15:21 | 50.62074 | 4.35315 | 8537 ft | 251 kts | 150° |
| 2026-04-28 15:21 | 50.60522 | 4.36563 | 8223 ft | 249 kts | 149° |
| 2026-04-28 15:21 | 50.58986 | 4.37833 | 7914 ft | 247 kts | 148° |
| 2026-04-28 15:22 | 50.57480 | 4.39094 | 7590 ft | 246 kts | 148° |
| 2026-04-28 15:22 | 50.55962 | 4.40367 | 7290 ft | 243 kts | 148° |
| 2026-04-28 15:22 | 50.54485 | 4.41605 | 7046 ft | 239 kts | 148° |
| 2026-04-28 15:22 | 50.52978 | 4.42811 | 6811 ft | 248 kts | 152° |
| 2026-04-28 15:23 | 50.51255 | 4.43436 | 6446 ft | 264 kts | 177° |
| 2026-04-28 15:23 | 50.49454 | 4.42623 | 6113 ft | 277 kts | 208° |
| 2026-04-28 15:23 | 50.48067 | 4.40534 | 5778 ft | 283 kts | 235° |
| 2026-04-28 15:23 | 50.47271 | 4.37684 | 5318 ft | 289 kts | 258° |
| 2026-04-28 15:24 | 50.47153 | 4.34535 | 4826 ft | 292 kts | 275° |
| 2026-04-28 15:24 | 50.47352 | 4.31337 | 4406 ft | 291 kts | 278° |
| 2026-04-28 15:24 | 50.47578 | 4.28302 | 4239 ft | 274 kts | 275° |
| 2026-04-28 15:24 | 50.47402 | 4.25406 | 4184 ft | 263 kts | 250° |
| 2026-04-28 15:25 | 50.46639 | 4.22792 | 4123 ft | 259 kts | 239° |
| 2026-04-28 15:25 | 50.45554 | 4.20653 | 4021 ft | 245 kts | 214° |
| 2026-04-28 15:25 | 50.44122 | 4.19407 | 3918 ft | 227 kts | 193° |
| 2026-04-28 15:25 | 50.42612 | 4.19034 | 3608 ft | 217 kts | 166° |
| 2026-04-28 15:26 | 50.41224 | 4.19747 | 3340 ft | 203 kts | 146° |
| 2026-04-28 15:26 | 50.40185 | 4.21040 | 3223 ft | 183 kts | 115° |
| 2026-04-28 15:26 | 50.39899 | 4.22911 | 3129 ft | 175 kts | 81° |
| 2026-04-28 15:26 | 50.40192 | 4.24741 | 3008 ft | 170 kts | 71° |
| 2026-04-28 15:27 | 50.40586 | 4.26449 | 2814 ft | 165 kts | 68° |
| 2026-04-28 15:27 | 50.41025 | 4.28082 | 2648 ft | 158 kts | 66° |
| 2026-04-28 15:27 | 50.41463 | 4.29621 | 2515 ft | 153 kts | 66° |
| 2026-04-28 15:27 | 50.41902 | 4.31155 | 2388 ft | 156 kts | 65° |
| 2026-04-28 15:28 | 50.42352 | 4.32718 | 2152 ft | 153 kts | 65° |
| 2026-04-28 15:28 | 50.42788 | 4.34237 | 1965 ft | 153 kts | 65° |
| 2026-04-28 15:28 | 50.43219 | 4.35725 | 1764 ft | 144 kts | 64° |
| 2026-04-28 15:28 | 50.43621 | 4.37120 | 1559 ft | 133 kts | 64° |
| 2026-04-28 15:29 | 50.43985 | 4.38375 | 1512 ft | 123 kts | 64° |
| 2026-04-28 15:29 | 50.44342 | 4.39613 | 1273 ft | 124 kts | 64° |
| 2026-04-28 15:29 | 50.44704 | 4.40859 | 1099 ft | 124 kts | 64° |
| 2026-04-28 15:29 | 50.45061 | 4.42095 | 931 ft | 127 kts | 64° |
| 2026-04-28 15:30 | 50.45422 | 4.43359 | 743 ft | 123 kts | 64° |
| 2026-04-28 15:30 | 50.45782 | 4.44582 | 599 ft | 117 kts | 63° |
| 2026-04-28 15:30 | 50.46025 | 4.45416 | 602 ft | 49 kts | 65° |
| 2026-04-28 15:30 | 50.46115 | 4.45727 | 603 ft | 27 kts | 65° |
| 2026-04-28 15:31 | 50.46194 | 4.45994 | 598 ft | 21 kts | 65° |
| 2026-04-28 15:31 | 50.46245 | 4.46126 | 594 ft | 13 kts | 32° |
| 2026-04-28 15:31 | 50.46330 | 4.46115 | 596 ft | 11 kts | 335° |
| 2026-04-28 15:31 | 50.46397 | 4.46111 | 597 ft | 9 kts | 35° |
| 2026-04-28 15:32 | 50.46457 | 4.46284 | 592 ft | 27 kts | 65° |
| 2026-04-28 15:32 | 50.46510 | 4.46465 | 586 ft | 23 kts | 63° |
| 2026-04-28 15:32 | 50.46603 | 4.46778 | 579 ft | 24 kts | 65° |
| 2026-04-28 15:32 | 50.46673 | 4.47030 | 572 ft | 24 kts | 65° |
| 2026-04-28 15:33 | 50.46730 | 4.47235 | 568 ft | 16 kts | 66° |
| 2026-04-28 15:33 | 50.46789 | 4.47351 | 563 ft | 13 kts | 4° |
| 2026-04-28 15:33 | 50.46833 | 4.47261 | 565 ft | 9 kts | 254° |
| 2026-04-28 15:33 | 50.46838 | 4.47208 | 567 ft | 2 kts | 314° |
| 2026-04-28 15:34 | 50.46858 | 4.47190 | 568 ft | 5 kts | 334° |
| 2026-04-28 15:34 | 50.46874 | 4.47178 | 569 ft | 0 kts | 335° |
| 2026-04-28 15:34 | 50.46888 | 4.47168 | 569 ft | 2 kts | 333° |
| 2026-04-28 15:34 | 50.46891 | 4.47166 | 569 ft | 0 kts | 334° |